sensor_id;sensor_type;location;lat;lon;timestamp;temperature;humidity
4596;DHT22;2310;49.978;8.742;2023-01-04T00:00:45;9.00;99.90
4596;DHT22;2310;49.978;8.742;2023-01-04T00:04:46;9.10;99.90
4596;DHT22;2310;49.978;8.742;2023-01-04T00:08:48;9.30;99.90
4596;DHT22;2310;49.978;8.742;2023-01-04T00:12:50;9.30;99.90
4596;DHT22;2310;49.978;8.742;2023-01-04T00:16:51;9.40;99.90
4596;DHT22;2310;49.978;8.742;2023-01-04T00:20:52;9.20;99.90
4596;DHT22;2310;49.978;8.742;2023-01-04T00:24:53;9.20;99.90
4596;DHT22;2310;49.978;8.742;2023-01-04T00:28:56;9.00;99.90
4596;DHT22;2310;49.978;8.742;2023-01-04T00:32:58;9.10;99.90
4596;DHT22;2310;49.978;8.742;2023-01-04T00:36:59;9.10;99.90
4596;DHT22;2310;49.978;8.742;2023-01-04T00:41:01;9.10;99.90
4596;DHT22;2310;49.978;8.742;2023-01-04T00:45:02;9.20;99.90
4596;DHT22;2310;49.978;8.742;2023-01-04T00:49:04;9.20;99.90
4596;DHT22;2310;49.978;8.742;2023-01-04T00:53:06;9.40;99.90
4596;DHT22;2310;49.978;8.742;2023-01-04T00:57:07;9.20;99.90
4596;DHT22;2310;49.978;8.742;2023-01-04T01:01:09;9.20;99.90
4596;DHT22;2310;49.978;8.742;2023-01-04T01:05:10;9.20;99.90
4596;DHT22;2310;49.978;8.742;2023-01-04T01:09:12;9.20;99.90
4596;DHT22;2310;49.978;8.742;2023-01-04T01:13:13;9.30;99.90
4596;DHT22;2310;49.978;8.742;2023-01-04T01:17:14;9.30;99.90
4596;DHT22;2310;49.978;8.742;2023-01-04T01:21:24;9.10;99.90
4596;DHT22;2310;49.978;8.742;2023-01-04T01:25:23;9.00;99.90
4596;DHT22;2310;49.978;8.742;2023-01-04T01:29:24;9.10;99.90
4596;DHT22;2310;49.978;8.742;2023-01-04T01:33:27;9.20;99.90
4596;DHT22;2310;49.978;8.742;2023-01-04T01:37:28;9.00;99.90
4596;DHT22;2310;49.978;8.742;2023-01-04T01:41:32;9.10;99.90
4596;DHT22;2310;49.978;8.742;2023-01-04T01:45:33;9.20;99.90
4596;DHT22;2310;49.978;8.742;2023-01-04T01:49:36;9.30;99.90
4596;DHT22;2310;49.978;8.742;2023-01-04T01:53:40;9.20;99.90
4596;DHT22;2310;49.978;8.742;2023-01-04T01:57:44;9.10;99.90
4596;DHT22;2310;49.978;8.742;2023-01-04T02:01:47;9.10;99.90
4596;DHT22;2310;49.978;8.742;2023-01-04T02:05:51;9.10;99.90
4596;DHT22;2310;49.978;8.742;2023-01-04T02:09:53;9.20;99.90
4596;DHT22;2310;49.978;8.742;2023-01-04T02:13:57;9.30;99.90
4596;DHT22;2310;49.978;8.742;2023-01-04T02:18:22;9.20;99.90
4596;DHT22;2310;49.978;8.742;2023-01-04T02:22:49;9.40;99.90
4596;DHT22;2310;49.978;8.742;2023-01-04T02:40:25;9.50;99.90
4596;DHT22;2310;49.978;8.742;2023-01-04T02:44:34;9.30;99.90
4596;DHT22;2310;49.978;8.742;2023-01-04T02:48:53;9.30;99.90
4596;DHT22;2310;49.978;8.742;2023-01-04T02:53:16;9.30;99.90
4596;DHT22;2310;49.978;8.742;2023-01-04T03:01:55;9.10;99.90
4596;DHT22;2310;49.978;8.742;2023-01-04T03:06:30;9.10;99.90
4596;DHT22;2310;49.978;8.742;2023-01-04T03:14:54;9.00;99.90
4596;DHT22;2310;49.978;8.742;2023-01-04T03:18:58;8.90;99.90
4596;DHT22;2310;49.978;8.742;2023-01-04T03:23:04;8.90;99.90
4596;DHT22;2310;49.978;8.742;2023-01-04T03:27:24;8.90;99.90
4596;DHT22;2310;49.978;8.742;2023-01-04T03:31:47;8.90;99.90
4596;DHT22;2310;49.978;8.742;2023-01-04T03:36:22;8.90;99.90
4596;DHT22;2310;49.978;8.742;2023-01-04T03:40:24;8.80;99.90
4596;DHT22;2310;49.978;8.742;2023-01-04T03:44:51;8.90;99.90
4596;DHT22;2310;49.978;8.742;2023-01-04T03:53:25;8.70;99.90
4596;DHT22;2310;49.978;8.742;2023-01-04T03:57:27;9.00;99.90
4596;DHT22;2310;49.978;8.742;2023-01-04T04:01:30;9.00;99.90
4596;DHT22;2310;49.978;8.742;2023-01-04T04:05:35;8.90;99.90
4596;DHT22;2310;49.978;8.742;2023-01-04T04:09:54;8.90;99.90
4596;DHT22;2310;49.978;8.742;2023-01-04T04:13:56;8.70;99.90
4596;DHT22;2310;49.978;8.742;2023-01-04T04:17:58;8.70;99.90
4596;DHT22;2310;49.978;8.742;2023-01-04T04:21:59;8.80;99.90
4596;DHT22;2310;49.978;8.742;2023-01-04T04:26:00;8.80;99.90
4596;DHT22;2310;49.978;8.742;2023-01-04T04:30:02;8.70;99.90
4596;DHT22;2310;49.978;8.742;2023-01-04T04:34:04;8.80;99.90
4596;DHT22;2310;49.978;8.742;2023-01-04T04:38:05;8.60;99.90
4596;DHT22;2310;49.978;8.742;2023-01-04T04:42:07;8.70;99.90
4596;DHT22;2310;49.978;8.742;2023-01-04T04:46:08;8.60;99.90
4596;DHT22;2310;49.978;8.742;2023-01-04T04:50:10;8.60;99.90
4596;DHT22;2310;49.978;8.742;2023-01-04T04:54:17;8.70;99.90
4596;DHT22;2310;49.978;8.742;2023-01-04T04:58:19;8.50;99.90
4596;DHT22;2310;49.978;8.742;2023-01-04T05:02:21;8.50;99.90
4596;DHT22;2310;49.978;8.742;2023-01-04T05:06:22;8.50;99.90
4596;DHT22;2310;49.978;8.742;2023-01-04T05:10:24;8.50;99.90
4596;DHT22;2310;49.978;8.742;2023-01-04T05:14:25;8.40;99.90
4596;DHT22;2310;49.978;8.742;2023-01-04T05:18:26;8.40;99.90
4596;DHT22;2310;49.978;8.742;2023-01-04T05:22:27;8.40;99.90
4596;DHT22;2310;49.978;8.742;2023-01-04T05:26:29;8.20;99.90
4596;DHT22;2310;49.978;8.742;2023-01-04T05:30:30;8.30;99.90
4596;DHT22;2310;49.978;8.742;2023-01-04T05:34:50;8.30;99.90
4596;DHT22;2310;49.978;8.742;2023-01-04T05:38:51;8.30;99.90
4596;DHT22;2310;49.978;8.742;2023-01-04T05:42:52;8.40;99.90
4596;DHT22;2310;49.978;8.742;2023-01-04T05:46:53;8.30;99.90
4596;DHT22;2310;49.978;8.742;2023-01-04T05:50:54;8.30;99.90
4596;DHT22;2310;49.978;8.742;2023-01-04T05:54:55;8.20;99.90
4596;DHT22;2310;49.978;8.742;2023-01-04T05:58:57;8.20;99.90
4596;DHT22;2310;49.978;8.742;2023-01-04T06:02:58;8.10;99.90
4596;DHT22;2310;49.978;8.742;2023-01-04T06:06:59;8.30;99.90
4596;DHT22;2310;49.978;8.742;2023-01-04T06:11:00;8.10;99.90
4596;DHT22;2310;49.978;8.742;2023-01-04T06:15:02;8.20;99.90
4596;DHT22;2310;49.978;8.742;2023-01-04T06:19:03;8.30;99.90
4596;DHT22;2310;49.978;8.742;2023-01-04T06:23:04;8.40;99.90
4596;DHT22;2310;49.978;8.742;2023-01-04T06:27:06;8.40;99.90
4596;DHT22;2310;49.978;8.742;2023-01-04T06:31:08;8.40;99.90
4596;DHT22;2310;49.978;8.742;2023-01-04T06:35:11;8.40;99.90
4596;DHT22;2310;49.978;8.742;2023-01-04T06:39:12;8.50;99.90
4596;DHT22;2310;49.978;8.742;2023-01-04T06:43:13;8.30;99.90
4596;DHT22;2310;49.978;8.742;2023-01-04T06:47:14;8.40;99.90
4596;DHT22;2310;49.978;8.742;2023-01-04T06:51:15;8.50;99.90
4596;DHT22;2310;49.978;8.742;2023-01-04T06:55:16;8.30;99.90
4596;DHT22;2310;49.978;8.742;2023-01-04T06:59:17;8.30;99.90
4596;DHT22;2310;49.978;8.742;2023-01-04T07:03:19;8.10;99.90
4596;DHT22;2310;49.978;8.742;2023-01-04T07:07:20;8.00;99.90
4596;DHT22;2310;49.978;8.742;2023-01-04T07:11:21;7.90;99.90
4596;DHT22;2310;49.978;8.742;2023-01-04T07:15:22;8.00;99.90
4596;DHT22;2310;49.978;8.742;2023-01-04T07:19:25;7.90;99.90
4596;DHT22;2310;49.978;8.742;2023-01-04T07:23:27;7.90;99.90
4596;DHT22;2310;49.978;8.742;2023-01-04T07:27:28;8.00;99.90
4596;DHT22;2310;49.978;8.742;2023-01-04T07:31:29;8.10;99.90
4596;DHT22;2310;49.978;8.742;2023-01-04T07:35:30;8.10;99.90
4596;DHT22;2310;49.978;8.742;2023-01-04T07:39:31;8.10;99.90
4596;DHT22;2310;49.978;8.742;2023-01-04T07:43:32;8.10;99.90
4596;DHT22;2310;49.978;8.742;2023-01-04T07:47:34;8.10;99.90
4596;DHT22;2310;49.978;8.742;2023-01-04T07:51:35;8.20;99.90
4596;DHT22;2310;49.978;8.742;2023-01-04T07:55:36;8.20;99.90
4596;DHT22;2310;49.978;8.742;2023-01-04T07:59:37;8.30;99.90
4596;DHT22;2310;49.978;8.742;2023-01-04T08:03:39;8.20;99.90
4596;DHT22;2310;49.978;8.742;2023-01-04T08:07:40;8.40;99.90
4596;DHT22;2310;49.978;8.742;2023-01-04T08:11:42;8.40;99.90
4596;DHT22;2310;49.978;8.742;2023-01-04T08:15:44;8.50;99.90
4596;DHT22;2310;49.978;8.742;2023-01-04T08:19:47;8.70;99.90
4596;DHT22;2310;49.978;8.742;2023-01-04T08:23:48;8.50;99.90
4596;DHT22;2310;49.978;8.742;2023-01-04T08:27:49;8.60;99.90
4596;DHT22;2310;49.978;8.742;2023-01-04T08:31:52;8.60;99.90
4596;DHT22;2310;49.978;8.742;2023-01-04T08:35:53;8.60;99.90
4596;DHT22;2310;49.978;8.742;2023-01-04T08:39:54;8.70;99.90
4596;DHT22;2310;49.978;8.742;2023-01-04T08:43:55;8.50;99.90
4596;DHT22;2310;49.978;8.742;2023-01-04T08:47:56;8.60;99.90
4596;DHT22;2310;49.978;8.742;2023-01-04T08:51:58;8.70;99.90
4596;DHT22;2310;49.978;8.742;2023-01-04T08:55:59;8.90;99.90
4596;DHT22;2310;49.978;8.742;2023-01-04T09:00:01;9.00;99.90
4596;DHT22;2310;49.978;8.742;2023-01-04T09:04:02;8.80;99.90
4596;DHT22;2310;49.978;8.742;2023-01-04T09:08:04;8.90;99.90
4596;DHT22;2310;49.978;8.742;2023-01-04T09:12:05;8.70;99.90
4596;DHT22;2310;49.978;8.742;2023-01-04T09:16:10;8.90;99.90
4596;DHT22;2310;49.978;8.742;2023-01-04T09:20:11;9.10;99.90
4596;DHT22;2310;49.978;8.742;2023-01-04T09:24:13;9.10;99.90
4596;DHT22;2310;49.978;8.742;2023-01-04T09:28:14;9.10;99.90
4596;DHT22;2310;49.978;8.742;2023-01-04T09:32:15;9.00;99.90
4596;DHT22;2310;49.978;8.742;2023-01-04T09:36:18;9.20;99.90
4596;DHT22;2310;49.978;8.742;2023-01-04T09:40:22;9.10;99.90
4596;DHT22;2310;49.978;8.742;2023-01-04T09:44:40;9.20;99.90
4596;DHT22;2310;49.978;8.742;2023-01-04T09:48:44;9.20;99.90
4596;DHT22;2310;49.978;8.742;2023-01-04T09:57:25;9.10;99.90
4596;DHT22;2310;49.978;8.742;2023-01-04T10:01:44;9.20;99.90
4596;DHT22;2310;49.978;8.742;2023-01-04T10:05:47;9.10;99.90
4596;DHT22;2310;49.978;8.742;2023-01-04T10:09:49;9.10;99.90
4596;DHT22;2310;49.978;8.742;2023-01-04T10:18:29;9.00;99.90
4596;DHT22;2310;49.978;8.742;2023-01-04T10:26:39;9.40;99.90
4596;DHT22;2310;49.978;8.742;2023-01-04T10:31:07;9.20;99.90
4596;DHT22;2310;49.978;8.742;2023-01-04T10:34:47;9.50;99.90
4596;DHT22;2310;49.978;8.742;2023-01-04T10:38:58;9.40;99.90
4596;DHT22;2310;49.978;8.742;2023-01-04T10:43:02;9.40;99.90
4596;DHT22;2310;49.978;8.742;2023-01-04T10:47:16;9.40;99.90
4596;DHT22;2310;49.978;8.742;2023-01-04T10:51:24;9.30;99.90
4596;DHT22;2310;49.978;8.742;2023-01-04T10:55:36;9.50;99.90
4596;DHT22;2310;49.978;8.742;2023-01-04T11:04:13;9.50;99.90
4596;DHT22;2310;49.978;8.742;2023-01-04T11:08:20;9.50;99.90
4596;DHT22;2310;49.978;8.742;2023-01-04T11:12:22;9.70;99.90
4596;DHT22;2310;49.978;8.742;2023-01-04T11:16:24;9.70;99.90
4596;DHT22;2310;49.978;8.742;2023-01-04T11:20:25;9.60;99.90
4596;DHT22;2310;49.978;8.742;2023-01-04T11:24:30;9.60;99.90
4596;DHT22;2310;49.978;8.742;2023-01-04T11:28:51;9.70;99.90
4596;DHT22;2310;49.978;8.742;2023-01-04T11:33:02;9.70;99.90
4596;DHT22;2310;49.978;8.742;2023-01-04T11:37:22;9.60;99.90
4596;DHT22;2310;49.978;8.742;2023-01-04T11:41:14;9.70;99.90
4596;DHT22;2310;49.978;8.742;2023-01-04T11:49:19;9.80;99.90
4596;DHT22;2310;49.978;8.742;2023-01-04T11:53:28;9.70;99.90
4596;DHT22;2310;49.978;8.742;2023-01-04T11:57:30;9.70;99.90
4596;DHT22;2310;49.978;8.742;2023-01-04T12:01:38;10.00;99.90
4596;DHT22;2310;49.978;8.742;2023-01-04T12:05:40;9.80;99.90
4596;DHT22;2310;49.978;8.742;2023-01-04T12:09:41;9.80;99.90
4596;DHT22;2310;49.978;8.742;2023-01-04T12:13:42;9.90;99.90
4596;DHT22;2310;49.978;8.742;2023-01-04T12:17:49;9.80;99.90
4596;DHT22;2310;49.978;8.742;2023-01-04T12:21:54;9.90;99.90
4596;DHT22;2310;49.978;8.742;2023-01-04T12:25:56;10.00;99.90
4596;DHT22;2310;49.978;8.742;2023-01-04T12:30:03;10.10;99.90
4596;DHT22;2310;49.978;8.742;2023-01-04T12:39:16;10.10;99.90
4596;DHT22;2310;49.978;8.742;2023-01-04T12:42:34;10.20;99.90
4596;DHT22;2310;49.978;8.742;2023-01-04T12:46:41;10.20;99.90
4596;DHT22;2310;49.978;8.742;2023-01-04T12:51:22;10.20;99.90
4596;DHT22;2310;49.978;8.742;2023-01-04T13:08:24;10.20;99.90
4596;DHT22;2310;49.978;8.742;2023-01-04T13:17:09;10.20;99.90
4596;DHT22;2310;49.978;8.742;2023-01-04T13:25:35;10.40;99.90
4596;DHT22;2310;49.978;8.742;2023-01-04T13:29:36;10.20;99.90
4596;DHT22;2310;49.978;8.742;2023-01-04T13:33:44;10.20;99.90
4596;DHT22;2310;49.978;8.742;2023-01-04T13:37:46;10.20;99.90
4596;DHT22;2310;49.978;8.742;2023-01-04T13:41:47;10.30;99.90
4596;DHT22;2310;49.978;8.742;2023-01-04T13:50:22;10.40;99.90
4596;DHT22;2310;49.978;8.742;2023-01-04T13:54:22;10.40;99.90
4596;DHT22;2310;49.978;8.742;2023-01-04T13:58:26;10.40;99.90
4596;DHT22;2310;49.978;8.742;2023-01-04T14:02:28;10.40;99.90
4596;DHT22;2310;49.978;8.742;2023-01-04T14:06:37;10.50;99.90
4596;DHT22;2310;49.978;8.742;2023-01-04T14:10:41;11.00;99.90
4596;DHT22;2310;49.978;8.742;2023-01-04T14:14:56;11.10;99.90
4596;DHT22;2310;49.978;8.742;2023-01-04T14:19:25;11.10;99.90
4596;DHT22;2310;49.978;8.742;2023-01-04T14:23:03;11.00;99.90
4596;DHT22;2310;49.978;8.742;2023-01-04T14:27:37;10.90;99.90
4596;DHT22;2310;49.978;8.742;2023-01-04T14:31:39;10.70;99.90
4596;DHT22;2310;49.978;8.742;2023-01-04T14:35:41;10.80;99.90
4596;DHT22;2310;49.978;8.742;2023-01-04T14:39:44;10.90;99.90
4596;DHT22;2310;49.978;8.742;2023-01-04T14:43:51;10.90;99.90
4596;DHT22;2310;49.978;8.742;2023-01-04T14:47:56;10.80;99.90
4596;DHT22;2310;49.978;8.742;2023-01-04T14:51:59;10.90;99.90
4596;DHT22;2310;49.978;8.742;2023-01-04T14:56:01;10.90;99.90
4596;DHT22;2310;49.978;8.742;2023-01-04T15:00:02;10.90;99.90
4596;DHT22;2310;49.978;8.742;2023-01-04T15:04:05;11.00;99.90
4596;DHT22;2310;49.978;8.742;2023-01-04T15:08:09;11.00;99.90
4596;DHT22;2310;49.978;8.742;2023-01-04T15:12:10;10.90;99.90
4596;DHT22;2310;49.978;8.742;2023-01-04T15:16:14;10.90;99.90
4596;DHT22;2310;49.978;8.742;2023-01-04T15:20:16;10.70;99.90
4596;DHT22;2310;49.978;8.742;2023-01-04T15:24:17;10.70;99.90
4596;DHT22;2310;49.978;8.742;2023-01-04T15:28:19;10.90;99.90
4596;DHT22;2310;49.978;8.742;2023-01-04T15:32:21;10.80;99.90
4596;DHT22;2310;49.978;8.742;2023-01-04T15:36:23;10.80;99.90
4596;DHT22;2310;49.978;8.742;2023-01-04T15:40:24;11.00;99.90
4596;DHT22;2310;49.978;8.742;2023-01-04T15:44:26;10.90;99.90
4596;DHT22;2310;49.978;8.742;2023-01-04T15:48:27;10.90;99.90
4596;DHT22;2310;49.978;8.742;2023-01-04T15:52:28;10.90;99.90
4596;DHT22;2310;49.978;8.742;2023-01-04T15:56:29;11.00;99.90
4596;DHT22;2310;49.978;8.742;2023-01-04T16:00:30;11.00;99.90
4596;DHT22;2310;49.978;8.742;2023-01-04T16:04:34;11.00;99.90
4596;DHT22;2310;49.978;8.742;2023-01-04T16:08:35;11.20;99.90
4596;DHT22;2310;49.978;8.742;2023-01-04T16:12:37;11.20;99.90
4596;DHT22;2310;49.978;8.742;2023-01-04T16:16:49;11.20;99.90
4596;DHT22;2310;49.978;8.742;2023-01-04T16:20:50;11.20;99.90
4596;DHT22;2310;49.978;8.742;2023-01-04T16:24:51;11.30;99.90
4596;DHT22;2310;49.978;8.742;2023-01-04T16:28:54;11.20;99.90
4596;DHT22;2310;49.978;8.742;2023-01-04T16:32:55;11.20;99.90
4596;DHT22;2310;49.978;8.742;2023-01-04T16:36:57;11.20;99.90
4596;DHT22;2310;49.978;8.742;2023-01-04T16:41:00;11.30;99.90
4596;DHT22;2310;49.978;8.742;2023-01-04T16:45:02;11.40;99.90
4596;DHT22;2310;49.978;8.742;2023-01-04T16:49:09;11.40;99.90
4596;DHT22;2310;49.978;8.742;2023-01-04T16:53:11;11.50;99.90
4596;DHT22;2310;49.978;8.742;2023-01-04T16:57:12;11.30;99.90
4596;DHT22;2310;49.978;8.742;2023-01-04T17:01:19;11.40;99.90
4596;DHT22;2310;49.978;8.742;2023-01-04T17:05:21;11.40;99.90
4596;DHT22;2310;49.978;8.742;2023-01-04T17:09:22;11.40;99.90
4596;DHT22;2310;49.978;8.742;2023-01-04T17:13:23;11.40;99.90
4596;DHT22;2310;49.978;8.742;2023-01-04T17:17:25;11.50;99.90
4596;DHT22;2310;49.978;8.742;2023-01-04T17:21:27;11.60;99.90
4596;DHT22;2310;49.978;8.742;2023-01-04T17:25:31;11.40;99.90
4596;DHT22;2310;49.978;8.742;2023-01-04T17:29:32;11.30;99.90
4596;DHT22;2310;49.978;8.742;2023-01-04T17:33:33;11.30;99.90
4596;DHT22;2310;49.978;8.742;2023-01-04T17:37:35;11.40;99.90
4596;DHT22;2310;49.978;8.742;2023-01-04T17:41:36;11.50;99.90
4596;DHT22;2310;49.978;8.742;2023-01-04T17:45:38;11.50;99.90
4596;DHT22;2310;49.978;8.742;2023-01-04T17:49:39;11.50;99.90
4596;DHT22;2310;49.978;8.742;2023-01-04T17:53:42;11.50;99.90
4596;DHT22;2310;49.978;8.742;2023-01-04T17:57:43;11.50;99.90
4596;DHT22;2310;49.978;8.742;2023-01-04T18:01:44;11.30;99.90
4596;DHT22;2310;49.978;8.742;2023-01-04T18:05:50;11.40;99.90
4596;DHT22;2310;49.978;8.742;2023-01-04T18:09:54;11.50;99.90
4596;DHT22;2310;49.978;8.742;2023-01-04T18:13:56;11.50;99.90
4596;DHT22;2310;49.978;8.742;2023-01-04T18:17:57;11.40;99.90
4596;DHT22;2310;49.978;8.742;2023-01-04T18:21:58;11.40;99.90
4596;DHT22;2310;49.978;8.742;2023-01-04T18:26:01;11.50;99.90
4596;DHT22;2310;49.978;8.742;2023-01-04T18:30:03;11.50;99.90
4596;DHT22;2310;49.978;8.742;2023-01-04T18:34:04;11.50;99.90
4596;DHT22;2310;49.978;8.742;2023-01-04T18:38:05;11.50;99.90
4596;DHT22;2310;49.978;8.742;2023-01-04T18:42:08;11.60;99.90
4596;DHT22;2310;49.978;8.742;2023-01-04T18:46:09;11.40;99.90
4596;DHT22;2310;49.978;8.742;2023-01-04T18:50:11;11.40;99.90
4596;DHT22;2310;49.978;8.742;2023-01-04T18:54:12;11.40;99.90
4596;DHT22;2310;49.978;8.742;2023-01-04T18:58:15;11.50;99.90
4596;DHT22;2310;49.978;8.742;2023-01-04T19:02:17;11.40;99.90
4596;DHT22;2310;49.978;8.742;2023-01-04T19:06:21;11.50;99.90
4596;DHT22;2310;49.978;8.742;2023-01-04T19:10:22;11.40;99.90
4596;DHT22;2310;49.978;8.742;2023-01-04T19:14:23;11.40;99.90
4596;DHT22;2310;49.978;8.742;2023-01-04T19:18:25;11.20;99.90
4596;DHT22;2310;49.978;8.742;2023-01-04T19:22:27;11.30;99.90
4596;DHT22;2310;49.978;8.742;2023-01-04T19:26:28;11.20;99.90
4596;DHT22;2310;49.978;8.742;2023-01-04T19:30:29;11.20;99.90
4596;DHT22;2310;49.978;8.742;2023-01-04T19:34:31;11.10;99.90
4596;DHT22;2310;49.978;8.742;2023-01-04T19:38:32;11.20;99.90
4596;DHT22;2310;49.978;8.742;2023-01-04T19:42:33;11.20;99.90
4596;DHT22;2310;49.978;8.742;2023-01-04T19:46:39;11.10;99.90
4596;DHT22;2310;49.978;8.742;2023-01-04T19:50:40;11.30;99.90
4596;DHT22;2310;49.978;8.742;2023-01-04T19:54:41;11.10;99.90
4596;DHT22;2310;49.978;8.742;2023-01-04T19:58:44;11.00;99.90
4596;DHT22;2310;49.978;8.742;2023-01-04T20:02:45;11.10;99.90
4596;DHT22;2310;49.978;8.742;2023-01-04T20:06:47;11.10;99.90
4596;DHT22;2310;49.978;8.742;2023-01-04T20:10:53;11.10;99.90
4596;DHT22;2310;49.978;8.742;2023-01-04T20:14:55;11.10;99.90
4596;DHT22;2310;49.978;8.742;2023-01-04T20:18:56;11.10;99.90
4596;DHT22;2310;49.978;8.742;2023-01-04T20:22:58;10.90;99.90
4596;DHT22;2310;49.978;8.742;2023-01-04T20:26:59;11.00;99.90
4596;DHT22;2310;49.978;8.742;2023-01-04T20:31:03;11.00;99.90
4596;DHT22;2310;49.978;8.742;2023-01-04T20:35:05;10.90;99.90
4596;DHT22;2310;49.978;8.742;2023-01-04T20:39:06;11.00;99.90
4596;DHT22;2310;49.978;8.742;2023-01-04T20:43:08;11.10;99.90
4596;DHT22;2310;49.978;8.742;2023-01-04T20:47:17;11.20;99.90
4596;DHT22;2310;49.978;8.742;2023-01-04T20:51:21;11.20;99.90
4596;DHT22;2310;49.978;8.742;2023-01-04T20:55:22;11.30;99.90
4596;DHT22;2310;49.978;8.742;2023-01-04T20:59:24;11.40;99.90
4596;DHT22;2310;49.978;8.742;2023-01-04T21:03:25;11.40;99.90
4596;DHT22;2310;49.978;8.742;2023-01-04T21:07:26;11.20;99.90
4596;DHT22;2310;49.978;8.742;2023-01-04T21:11:29;11.30;99.90
4596;DHT22;2310;49.978;8.742;2023-01-04T21:15:30;11.30;99.90
4596;DHT22;2310;49.978;8.742;2023-01-04T21:19:32;11.20;99.90
4596;DHT22;2310;49.978;8.742;2023-01-04T21:23:34;11.20;99.90
4596;DHT22;2310;49.978;8.742;2023-01-04T21:27:36;11.30;99.90
4596;DHT22;2310;49.978;8.742;2023-01-04T21:31:38;11.30;99.90
4596;DHT22;2310;49.978;8.742;2023-01-04T21:35:39;11.40;99.90
4596;DHT22;2310;49.978;8.742;2023-01-04T21:39:40;11.50;99.90
4596;DHT22;2310;49.978;8.742;2023-01-04T21:43:42;11.60;99.90
4596;DHT22;2310;49.978;8.742;2023-01-04T21:47:44;11.60;99.90
4596;DHT22;2310;49.978;8.742;2023-01-04T21:51:45;11.60;99.90
4596;DHT22;2310;49.978;8.742;2023-01-04T21:55:46;11.60;99.90
4596;DHT22;2310;49.978;8.742;2023-01-04T21:59:48;11.60;99.90
4596;DHT22;2310;49.978;8.742;2023-01-04T22:03:49;11.50;99.90
4596;DHT22;2310;49.978;8.742;2023-01-04T22:07:51;11.50;99.90
4596;DHT22;2310;49.978;8.742;2023-01-04T22:11:52;11.50;99.90
4596;DHT22;2310;49.978;8.742;2023-01-04T22:15:53;11.60;99.90
4596;DHT22;2310;49.978;8.742;2023-01-04T22:19:55;11.70;99.90
4596;DHT22;2310;49.978;8.742;2023-01-04T22:23:56;11.70;99.90
4596;DHT22;2310;49.978;8.742;2023-01-04T22:27:58;11.60;99.90
4596;DHT22;2310;49.978;8.742;2023-01-04T22:31:59;11.80;99.90
4596;DHT22;2310;49.978;8.742;2023-01-04T22:36:05;11.90;99.90
4596;DHT22;2310;49.978;8.742;2023-01-04T22:40:07;11.80;99.90
4596;DHT22;2310;49.978;8.742;2023-01-04T22:44:09;11.80;99.90
4596;DHT22;2310;49.978;8.742;2023-01-04T22:48:10;11.60;99.90
4596;DHT22;2310;49.978;8.742;2023-01-04T22:52:11;11.80;99.90
4596;DHT22;2310;49.978;8.742;2023-01-04T22:56:15;11.70;99.90
4596;DHT22;2310;49.978;8.742;2023-01-04T23:00:18;11.60;99.90
4596;DHT22;2310;49.978;8.742;2023-01-04T23:04:19;11.70;99.90
4596;DHT22;2310;49.978;8.742;2023-01-04T23:08:20;11.60;99.90
4596;DHT22;2310;49.978;8.742;2023-01-04T23:12:21;11.70;99.90
4596;DHT22;2310;49.978;8.742;2023-01-04T23:16:23;11.70;99.90
4596;DHT22;2310;49.978;8.742;2023-01-04T23:20:26;11.70;99.90
4596;DHT22;2310;49.978;8.742;2023-01-04T23:24:27;11.60;99.90
4596;DHT22;2310;49.978;8.742;2023-01-04T23:28:28;11.70;99.90
4596;DHT22;2310;49.978;8.742;2023-01-04T23:32:30;11.60;99.90
4596;DHT22;2310;49.978;8.742;2023-01-04T23:36:34;11.80;99.90
4596;DHT22;2310;49.978;8.742;2023-01-04T23:40:36;11.90;99.90
4596;DHT22;2310;49.978;8.742;2023-01-04T23:44:37;11.80;99.90
4596;DHT22;2310;49.978;8.742;2023-01-04T23:48:38;11.80;99.90
4596;DHT22;2310;49.978;8.742;2023-01-04T23:52:40;11.70;99.90
4596;DHT22;2310;49.978;8.742;2023-01-04T23:56:41;11.60;99.90
